sensor_id;sensor_type;location;lat;lon;timestamp;temperature;humidity
47414;DHT22;33163;0.000;0.000;2022-10-26T00:01:03;19.50;79.90
47414;DHT22;33163;0.000;0.000;2022-10-26T00:03:32;19.60;79.80
47414;DHT22;33163;0.000;0.000;2022-10-26T00:06:04;19.60;80.00
47414;DHT22;33163;0.000;0.000;2022-10-26T00:08:32;19.50;79.90
47414;DHT22;33163;0.000;0.000;2022-10-26T00:10:59;19.50;79.90
47414;DHT22;33163;0.000;0.000;2022-10-26T00:13:25;19.50;79.90
47414;DHT22;33163;0.000;0.000;2022-10-26T00:15:52;19.50;79.90
47414;DHT22;33163;0.000;0.000;2022-10-26T00:18:19;19.50;79.80
47414;DHT22;33163;0.000;0.000;2022-10-26T00:20:49;19.50;79.80
47414;DHT22;33163;0.000;0.000;2022-10-26T00:23:15;19.50;80.30
47414;DHT22;33163;0.000;0.000;2022-10-26T00:25:42;19.50;79.90
47414;DHT22;33163;0.000;0.000;2022-10-26T00:28:09;19.50;79.80
47414;DHT22;33163;0.000;0.000;2022-10-26T00:30:38;19.50;79.70
47414;DHT22;33163;0.000;0.000;2022-10-26T00:33:05;19.50;79.70
47414;DHT22;33163;0.000;0.000;2022-10-26T00:35:32;19.50;79.60
47414;DHT22;33163;0.000;0.000;2022-10-26T00:38:00;19.50;79.60
47414;DHT22;33163;0.000;0.000;2022-10-26T00:40:27;19.50;79.60
47414;DHT22;33163;0.000;0.000;2022-10-26T00:42:54;19.50;79.60
47414;DHT22;33163;0.000;0.000;2022-10-26T00:45:22;19.50;79.60
47414;DHT22;33163;0.000;0.000;2022-10-26T00:47:52;19.50;79.60
47414;DHT22;33163;0.000;0.000;2022-10-26T00:50:23;19.50;79.60
47414;DHT22;33163;0.000;0.000;2022-10-26T00:52:52;19.50;79.60
47414;DHT22;33163;0.000;0.000;2022-10-26T00:55:24;19.50;79.70
47414;DHT22;33163;0.000;0.000;2022-10-26T00:57:52;19.50;79.50
47414;DHT22;33163;0.000;0.000;2022-10-26T01:00:20;19.50;79.60
47414;DHT22;33163;0.000;0.000;2022-10-26T01:02:48;19.40;79.60
47414;DHT22;33163;0.000;0.000;2022-10-26T01:05:16;19.50;79.60
47414;DHT22;33163;0.000;0.000;2022-10-26T01:07:43;19.40;79.50
47414;DHT22;33163;0.000;0.000;2022-10-26T01:10:11;19.40;79.60
47414;DHT22;33163;0.000;0.000;2022-10-26T01:12:40;19.40;79.30
47414;DHT22;33163;0.000;0.000;2022-10-26T01:15:08;19.40;79.40
47414;DHT22;33163;0.000;0.000;2022-10-26T01:17:45;19.40;79.40
47414;DHT22;33163;0.000;0.000;2022-10-26T01:20:46;19.50;79.40
47414;DHT22;33163;0.000;0.000;2022-10-26T01:23:21;19.40;79.30
47414;DHT22;33163;0.000;0.000;2022-10-26T01:26:21;19.40;79.20
47414;DHT22;33163;0.000;0.000;2022-10-26T01:29:18;19.40;79.30
47414;DHT22;33163;0.000;0.000;2022-10-26T01:31:55;19.40;79.20
47414;DHT22;33163;0.000;0.000;2022-10-26T01:34:28;19.40;79.30
47414;DHT22;33163;0.000;0.000;2022-10-26T01:37:03;19.40;79.30
47414;DHT22;33163;0.000;0.000;2022-10-26T01:39:37;19.40;79.20
47414;DHT22;33163;0.000;0.000;2022-10-26T01:42:04;19.40;79.20
47414;DHT22;33163;0.000;0.000;2022-10-26T01:44:38;19.40;79.20
47414;DHT22;33163;0.000;0.000;2022-10-26T01:47:10;19.40;79.20
47414;DHT22;33163;0.000;0.000;2022-10-26T01:49:40;19.40;79.30
47414;DHT22;33163;0.000;0.000;2022-10-26T01:52:08;19.40;79.20
47414;DHT22;33163;0.000;0.000;2022-10-26T01:54:36;19.40;79.30
47414;DHT22;33163;0.000;0.000;2022-10-26T01:57:04;19.40;79.90
47414;DHT22;33163;0.000;0.000;2022-10-26T01:59:46;19.40;79.20
47414;DHT22;33163;0.000;0.000;2022-10-26T02:05:25;19.40;79.20
47414;DHT22;33163;0.000;0.000;2022-10-26T02:07:59;19.40;79.10
47414;DHT22;33163;0.000;0.000;2022-10-26T02:10:37;19.40;79.20
47414;DHT22;33163;0.000;0.000;2022-10-26T02:13:15;19.40;79.00
47414;DHT22;33163;0.000;0.000;2022-10-26T02:15:48;19.40;79.00
47414;DHT22;33163;0.000;0.000;2022-10-26T02:18:29;19.40;79.00
47414;DHT22;33163;0.000;0.000;2022-10-26T02:21:02;19.40;79.00
47414;DHT22;33163;0.000;0.000;2022-10-26T02:23:32;19.40;79.10
47414;DHT22;33163;0.000;0.000;2022-10-26T02:26:02;19.40;79.00
47414;DHT22;33163;0.000;0.000;2022-10-26T02:28:34;19.40;79.10
47414;DHT22;33163;0.000;0.000;2022-10-26T02:31:03;19.40;79.10
47414;DHT22;33163;0.000;0.000;2022-10-26T02:33:36;19.40;79.00
47414;DHT22;33163;0.000;0.000;2022-10-26T02:36:06;19.40;79.10
47414;DHT22;33163;0.000;0.000;2022-10-26T02:38:35;19.40;79.10
47414;DHT22;33163;0.000;0.000;2022-10-26T02:41:03;19.30;79.00
47414;DHT22;33163;0.000;0.000;2022-10-26T02:43:36;19.30;79.00
47414;DHT22;33163;0.000;0.000;2022-10-26T02:46:07;19.40;78.90
47414;DHT22;33163;0.000;0.000;2022-10-26T02:48:36;19.40;79.00
47414;DHT22;33163;0.000;0.000;2022-10-26T02:51:06;19.30;78.90
47414;DHT22;33163;0.000;0.000;2022-10-26T02:53:41;19.30;79.00
47414;DHT22;33163;0.000;0.000;2022-10-26T02:56:13;19.30;78.80
47414;DHT22;33163;0.000;0.000;2022-10-26T02:58:45;19.30;78.90
47414;DHT22;33163;0.000;0.000;2022-10-26T03:01:14;19.30;79.60
47414;DHT22;33163;0.000;0.000;2022-10-26T03:03:42;19.30;78.90
47414;DHT22;33163;0.000;0.000;2022-10-26T03:06:09;19.30;78.90
47414;DHT22;33163;0.000;0.000;2022-10-26T03:08:36;19.30;78.80
47414;DHT22;33163;0.000;0.000;2022-10-26T03:11:02;19.30;78.80
47414;DHT22;33163;0.000;0.000;2022-10-26T03:13:29;19.30;78.70
47414;DHT22;33163;0.000;0.000;2022-10-26T03:15:56;19.30;78.70
47414;DHT22;33163;0.000;0.000;2022-10-26T03:18:22;19.30;78.70
47414;DHT22;33163;0.000;0.000;2022-10-26T03:20:50;19.30;78.60
47414;DHT22;33163;0.000;0.000;2022-10-26T03:23:17;19.30;78.60
47414;DHT22;33163;0.000;0.000;2022-10-26T03:25:44;19.30;78.60
47414;DHT22;33163;0.000;0.000;2022-10-26T03:28:11;19.30;78.60
47414;DHT22;33163;0.000;0.000;2022-10-26T03:30:37;19.30;78.60
47414;DHT22;33163;0.000;0.000;2022-10-26T03:33:04;19.30;78.60
47414;DHT22;33163;0.000;0.000;2022-10-26T03:35:31;19.30;78.50
47414;DHT22;33163;0.000;0.000;2022-10-26T03:37:59;19.30;78.60
47414;DHT22;33163;0.000;0.000;2022-10-26T03:40:26;19.30;78.60
47414;DHT22;33163;0.000;0.000;2022-10-26T03:42:52;19.30;78.60
47414;DHT22;33163;0.000;0.000;2022-10-26T03:45:19;19.30;78.60
47414;DHT22;33163;0.000;0.000;2022-10-26T03:47:47;19.30;78.70
47414;DHT22;33163;0.000;0.000;2022-10-26T03:50:16;19.30;78.70
47414;DHT22;33163;0.000;0.000;2022-10-26T03:52:43;19.30;78.60
47414;DHT22;33163;0.000;0.000;2022-10-26T03:55:11;19.30;78.70
47414;DHT22;33163;0.000;0.000;2022-10-26T03:57:41;19.30;78.70
47414;DHT22;33163;0.000;0.000;2022-10-26T04:00:09;19.30;78.60
47414;DHT22;33163;0.000;0.000;2022-10-26T04:02:36;19.20;78.60
47414;DHT22;33163;0.000;0.000;2022-10-26T04:05:03;19.30;78.50
47414;DHT22;33163;0.000;0.000;2022-10-26T04:07:30;19.20;78.40
47414;DHT22;33163;0.000;0.000;2022-10-26T04:09:56;19.20;78.40
47414;DHT22;33163;0.000;0.000;2022-10-26T04:12:25;19.20;78.40
47414;DHT22;33163;0.000;0.000;2022-10-26T04:14:51;19.20;78.40
47414;DHT22;33163;0.000;0.000;2022-10-26T04:17:18;19.20;78.40
47414;DHT22;33163;0.000;0.000;2022-10-26T04:19:45;19.20;78.40
47414;DHT22;33163;0.000;0.000;2022-10-26T04:22:11;19.20;78.40
47414;DHT22;33163;0.000;0.000;2022-10-26T04:24:38;19.20;78.40
47414;DHT22;33163;0.000;0.000;2022-10-26T04:27:05;19.20;78.30
47414;DHT22;33163;0.000;0.000;2022-10-26T04:29:33;19.20;78.30
47414;DHT22;33163;0.000;0.000;2022-10-26T04:32:00;19.20;78.20
47414;DHT22;33163;0.000;0.000;2022-10-26T04:34:26;19.20;78.30
47414;DHT22;33163;0.000;0.000;2022-10-26T04:36:54;19.20;78.30
47414;DHT22;33163;0.000;0.000;2022-10-26T04:39:21;19.20;78.30
47414;DHT22;33163;0.000;0.000;2022-10-26T04:41:48;19.20;78.30
47414;DHT22;33163;0.000;0.000;2022-10-26T04:44:14;19.20;78.20
47414;DHT22;33163;0.000;0.000;2022-10-26T04:46:42;19.20;78.20
47414;DHT22;33163;0.000;0.000;2022-10-26T04:49:09;19.20;78.30
47414;DHT22;33163;0.000;0.000;2022-10-26T04:51:36;19.20;78.30
47414;DHT22;33163;0.000;0.000;2022-10-26T04:54:03;19.20;78.30
47414;DHT22;33163;0.000;0.000;2022-10-26T04:56:30;19.20;78.40
47414;DHT22;33163;0.000;0.000;2022-10-26T04:58:56;19.20;78.30
47414;DHT22;33163;0.000;0.000;2022-10-26T05:01:23;19.20;78.30
47414;DHT22;33163;0.000;0.000;2022-10-26T05:03:51;19.20;78.20
47414;DHT22;33163;0.000;0.000;2022-10-26T05:06:19;19.20;78.20
47414;DHT22;33163;0.000;0.000;2022-10-26T05:08:46;19.20;78.30
47414;DHT22;33163;0.000;0.000;2022-10-26T05:11:13;19.20;78.30
47414;DHT22;33163;0.000;0.000;2022-10-26T05:13:39;19.20;78.30
47414;DHT22;33163;0.000;0.000;2022-10-26T05:16:06;19.20;78.40
47414;DHT22;33163;0.000;0.000;2022-10-26T05:18:33;19.20;78.30
47414;DHT22;33163;0.000;0.000;2022-10-26T05:21:01;19.20;78.50
47414;DHT22;33163;0.000;0.000;2022-10-26T05:23:28;19.20;78.40
47414;DHT22;33163;0.000;0.000;2022-10-26T05:25:55;19.20;78.30
47414;DHT22;33163;0.000;0.000;2022-10-26T05:28:22;19.20;78.20
47414;DHT22;33163;0.000;0.000;2022-10-26T05:30:49;19.10;78.30
47414;DHT22;33163;0.000;0.000;2022-10-26T05:33:15;19.20;78.40
47414;DHT22;33163;0.000;0.000;2022-10-26T05:35:42;19.20;78.40
47414;DHT22;33163;0.000;0.000;2022-10-26T05:38:13;19.20;78.70
47414;DHT22;33163;0.000;0.000;2022-10-26T05:40:46;19.20;78.90
47414;DHT22;33163;0.000;0.000;2022-10-26T05:43:13;19.20;78.70
47414;DHT22;33163;0.000;0.000;2022-10-26T05:45:40;19.20;79.20
47414;DHT22;33163;0.000;0.000;2022-10-26T05:48:06;19.20;79.00
47414;DHT22;33163;0.000;0.000;2022-10-26T05:50:33;19.20;78.80
47414;DHT22;33163;0.000;0.000;2022-10-26T05:53:00;19.10;78.40
47414;DHT22;33163;0.000;0.000;2022-10-26T05:55:29;19.10;78.10
47414;DHT22;33163;0.000;0.000;2022-10-26T05:57:56;19.10;77.80
47414;DHT22;33163;0.000;0.000;2022-10-26T06:00:25;19.10;77.70
47414;DHT22;33163;0.000;0.000;2022-10-26T06:03:06;19.00;77.90
47414;DHT22;33163;0.000;0.000;2022-10-26T06:05:37;19.10;78.10
47414;DHT22;33163;0.000;0.000;2022-10-26T06:08:08;19.10;78.40
47414;DHT22;33163;0.000;0.000;2022-10-26T06:10:38;19.10;78.40
47414;DHT22;33163;0.000;0.000;2022-10-26T06:13:05;19.10;78.60
47414;DHT22;33163;0.000;0.000;2022-10-26T06:15:36;19.10;78.70
47414;DHT22;33163;0.000;0.000;2022-10-26T06:18:09;19.20;79.00
47414;DHT22;33163;0.000;0.000;2022-10-26T06:20:47;19.10;79.00
47414;DHT22;33163;0.000;0.000;2022-10-26T06:23:31;19.20;79.10
47414;DHT22;33163;0.000;0.000;2022-10-26T06:26:08;19.20;79.20
47414;DHT22;33163;0.000;0.000;2022-10-26T06:28:46;19.10;79.10
47414;DHT22;33163;0.000;0.000;2022-10-26T06:31:14;19.20;79.20
47414;DHT22;33163;0.000;0.000;2022-10-26T06:33:42;19.20;79.50
47414;DHT22;33163;0.000;0.000;2022-10-26T06:36:19;19.20;79.60
47414;DHT22;33163;0.000;0.000;2022-10-26T06:38:47;19.20;79.80
47414;DHT22;33163;0.000;0.000;2022-10-26T06:41:16;19.20;79.90
47414;DHT22;33163;0.000;0.000;2022-10-26T06:43:44;19.20;79.90
47414;DHT22;33163;0.000;0.000;2022-10-26T06:46:18;19.20;80.00
47414;DHT22;33163;0.000;0.000;2022-10-26T06:48:50;19.20;79.90
47414;DHT22;33163;0.000;0.000;2022-10-26T06:51:19;19.20;79.90
47414;DHT22;33163;0.000;0.000;2022-10-26T06:53:51;19.20;79.70
47414;DHT22;33163;0.000;0.000;2022-10-26T06:56:20;19.20;79.60
47414;DHT22;33163;0.000;0.000;2022-10-26T06:58:50;19.10;79.40
47414;DHT22;33163;0.000;0.000;2022-10-26T07:01:18;19.20;79.60
47414;DHT22;33163;0.000;0.000;2022-10-26T07:03:44;19.20;79.80
47414;DHT22;33163;0.000;0.000;2022-10-26T07:06:11;19.20;79.90
47414;DHT22;33163;0.000;0.000;2022-10-26T07:08:38;19.10;80.00
47414;DHT22;33163;0.000;0.000;2022-10-26T07:11:05;19.20;79.90
47414;DHT22;33163;0.000;0.000;2022-10-26T07:13:35;19.10;79.80
47414;DHT22;33163;0.000;0.000;2022-10-26T07:16:01;19.20;79.80
47414;DHT22;33163;0.000;0.000;2022-10-26T07:18:28;19.20;80.00
47414;DHT22;33163;0.000;0.000;2022-10-26T07:20:55;19.10;80.00
47414;DHT22;33163;0.000;0.000;2022-10-26T07:23:23;19.20;80.00
47414;DHT22;33163;0.000;0.000;2022-10-26T07:25:50;19.20;79.90
47414;DHT22;33163;0.000;0.000;2022-10-26T07:28:17;19.20;79.80
47414;DHT22;33163;0.000;0.000;2022-10-26T07:30:45;19.20;80.00
47414;DHT22;33163;0.000;0.000;2022-10-26T07:33:13;19.10;80.10
47414;DHT22;33163;0.000;0.000;2022-10-26T07:35:40;19.20;80.00
47414;DHT22;33163;0.000;0.000;2022-10-26T07:38:07;19.10;80.00
47414;DHT22;33163;0.000;0.000;2022-10-26T07:40:35;19.10;80.30
47414;DHT22;33163;0.000;0.000;2022-10-26T07:43:02;19.10;80.20
47414;DHT22;33163;0.000;0.000;2022-10-26T07:45:29;19.20;80.30
47414;DHT22;33163;0.000;0.000;2022-10-26T07:47:57;19.20;79.60
47414;DHT22;33163;0.000;0.000;2022-10-26T07:50:24;19.20;79.10
47414;DHT22;33163;0.000;0.000;2022-10-26T07:52:51;19.20;79.00
47414;DHT22;33163;0.000;0.000;2022-10-26T07:55:18;19.20;78.90
47414;DHT22;33163;0.000;0.000;2022-10-26T07:57:45;19.20;79.10
47414;DHT22;33163;0.000;0.000;2022-10-26T08:00:13;19.20;79.10
47414;DHT22;33163;0.000;0.000;2022-10-26T08:02:40;19.20;79.20
47414;DHT22;33163;0.000;0.000;2022-10-26T08:05:08;19.20;79.40
47414;DHT22;33163;0.000;0.000;2022-10-26T08:07:40;19.20;79.30
47414;DHT22;33163;0.000;0.000;2022-10-26T08:10:08;19.30;79.00
47414;DHT22;33163;0.000;0.000;2022-10-26T08:12:35;19.30;79.30
47414;DHT22;33163;0.000;0.000;2022-10-26T08:15:01;19.30;79.50
47414;DHT22;33163;0.000;0.000;2022-10-26T08:17:28;19.30;79.50
47414;DHT22;33163;0.000;0.000;2022-10-26T08:19:55;19.30;79.30
47414;DHT22;33163;0.000;0.000;2022-10-26T08:22:23;19.30;78.90
47414;DHT22;33163;0.000;0.000;2022-10-26T08:24:50;19.40;78.60
47414;DHT22;33163;0.000;0.000;2022-10-26T08:27:17;19.40;78.30
47414;DHT22;33163;0.000;0.000;2022-10-26T08:29:43;19.50;78.20
47414;DHT22;33163;0.000;0.000;2022-10-26T08:32:10;19.60;78.10
47414;DHT22;33163;0.000;0.000;2022-10-26T08:34:37;19.60;78.00
47414;DHT22;33163;0.000;0.000;2022-10-26T08:37:04;19.70;77.90
47414;DHT22;33163;0.000;0.000;2022-10-26T08:39:32;19.80;78.00
47414;DHT22;33163;0.000;0.000;2022-10-26T08:42:03;19.80;77.90
47414;DHT22;33163;0.000;0.000;2022-10-26T08:44:35;19.80;78.00
47414;DHT22;33163;0.000;0.000;2022-10-26T08:47:06;19.80;78.00
47414;DHT22;33163;0.000;0.000;2022-10-26T08:49:41;19.90;78.00
47414;DHT22;33163;0.000;0.000;2022-10-26T08:52:13;19.90;78.10
47414;DHT22;33163;0.000;0.000;2022-10-26T08:54:46;19.90;78.20
47414;DHT22;33163;0.000;0.000;2022-10-26T08:57:19;19.90;78.40
47414;DHT22;33163;0.000;0.000;2022-10-26T08:59:52;19.90;78.30
47414;DHT22;33163;0.000;0.000;2022-10-26T09:02:19;19.90;78.40
47414;DHT22;33163;0.000;0.000;2022-10-26T09:04:47;19.90;78.30
47414;DHT22;33163;0.000;0.000;2022-10-26T09:07:29;19.90;78.30
47414;DHT22;33163;0.000;0.000;2022-10-26T09:10:05;20.00;78.30
47414;DHT22;33163;0.000;0.000;2022-10-26T09:12:40;20.00;78.60
47414;DHT22;33163;0.000;0.000;2022-10-26T09:15:14;20.00;78.60
47414;DHT22;33163;0.000;0.000;2022-10-26T09:17:48;20.00;78.50
47414;DHT22;33163;0.000;0.000;2022-10-26T09:20:33;20.00;78.50
47414;DHT22;33163;0.000;0.000;2022-10-26T09:23:13;20.10;78.50
47414;DHT22;33163;0.000;0.000;2022-10-26T09:25:49;20.10;78.60
47414;DHT22;33163;0.000;0.000;2022-10-26T09:28:21;20.10;78.60
47414;DHT22;33163;0.000;0.000;2022-10-26T09:30:48;20.10;78.60
47414;DHT22;33163;0.000;0.000;2022-10-26T09:33:16;20.20;78.60
47414;DHT22;33163;0.000;0.000;2022-10-26T09:35:48;20.20;78.60
47414;DHT22;33163;0.000;0.000;2022-10-26T09:38:19;20.20;78.60
47414;DHT22;33163;0.000;0.000;2022-10-26T09:40:52;20.30;78.60
47414;DHT22;33163;0.000;0.000;2022-10-26T09:43:24;20.30;78.60
47414;DHT22;33163;0.000;0.000;2022-10-26T09:45:53;20.30;78.70
47414;DHT22;33163;0.000;0.000;2022-10-26T09:48:26;20.30;78.90
47414;DHT22;33163;0.000;0.000;2022-10-26T09:50:56;20.30;79.00
47414;DHT22;33163;0.000;0.000;2022-10-26T09:53:25;20.40;79.10
47414;DHT22;33163;0.000;0.000;2022-10-26T09:56:00;20.30;79.00
47414;DHT22;33163;0.000;0.000;2022-10-26T09:58:33;20.30;79.00
47414;DHT22;33163;0.000;0.000;2022-10-26T10:01:01;20.30;79.10
47414;DHT22;33163;0.000;0.000;2022-10-26T10:03:30;20.30;79.30
47414;DHT22;33163;0.000;0.000;2022-10-26T10:06:15;20.20;79.50
47414;DHT22;33163;0.000;0.000;2022-10-26T10:08:42;20.30;79.50
47414;DHT22;33163;0.000;0.000;2022-10-26T10:11:14;20.20;79.50
47414;DHT22;33163;0.000;0.000;2022-10-26T10:13:42;20.20;79.60
47414;DHT22;33163;0.000;0.000;2022-10-26T10:16:18;20.10;79.60
47414;DHT22;33163;0.000;0.000;2022-10-26T10:18:52;20.10;79.60
47414;DHT22;33163;0.000;0.000;2022-10-26T10:21:20;20.20;79.60
47414;DHT22;33163;0.000;0.000;2022-10-26T10:23:49;20.10;79.70
47414;DHT22;33163;0.000;0.000;2022-10-26T10:26:19;20.10;79.60
47414;DHT22;33163;0.000;0.000;2022-10-26T10:28:55;20.10;79.60
47414;DHT22;33163;0.000;0.000;2022-10-26T10:31:27;20.10;79.60
47414;DHT22;33163;0.000;0.000;2022-10-26T10:33:54;20.10;79.60
47414;DHT22;33163;0.000;0.000;2022-10-26T10:36:23;20.10;79.70
47414;DHT22;33163;0.000;0.000;2022-10-26T10:38:52;20.10;79.70
47414;DHT22;33163;0.000;0.000;2022-10-26T10:41:24;20.20;79.70
47414;DHT22;33163;0.000;0.000;2022-10-26T10:43:54;20.30;79.40
47414;DHT22;33163;0.000;0.000;2022-10-26T10:46:23;20.30;79.40
47414;DHT22;33163;0.000;0.000;2022-10-26T10:48:54;20.40;79.40
47414;DHT22;33163;0.000;0.000;2022-10-26T10:51:26;20.40;79.40
47414;DHT22;33163;0.000;0.000;2022-10-26T10:53:55;20.50;79.30
47414;DHT22;33163;0.000;0.000;2022-10-26T10:56:30;20.50;79.20
47414;DHT22;33163;0.000;0.000;2022-10-26T11:02:01;20.60;79.50
47414;DHT22;33163;0.000;0.000;2022-10-26T11:04:58;20.60;79.40
47414;DHT22;33163;0.000;0.000;2022-10-26T11:07:41;20.60;79.50
47414;DHT22;33163;0.000;0.000;2022-10-26T11:10:14;20.60;79.70
47414;DHT22;33163;0.000;0.000;2022-10-26T11:12:48;20.60;80.30
47414;DHT22;33163;0.000;0.000;2022-10-26T11:15:19;20.60;79.50
47414;DHT22;33163;0.000;0.000;2022-10-26T11:17:52;20.60;79.50
47414;DHT22;33163;0.000;0.000;2022-10-26T11:20:23;20.70;79.50
47414;DHT22;33163;0.000;0.000;2022-10-26T11:23:01;20.70;79.50
47414;DHT22;33163;0.000;0.000;2022-10-26T11:25:34;20.70;79.40
47414;DHT22;33163;0.000;0.000;2022-10-26T11:28:09;20.70;79.40
47414;DHT22;33163;0.000;0.000;2022-10-26T11:30:43;20.70;79.40
47414;DHT22;33163;0.000;0.000;2022-10-26T11:33:14;20.70;79.50
47414;DHT22;33163;0.000;0.000;2022-10-26T11:35:45;20.70;79.50
47414;DHT22;33163;0.000;0.000;2022-10-26T11:38:18;20.70;79.60
47414;DHT22;33163;0.000;0.000;2022-10-26T11:40:51;20.70;79.60
47414;DHT22;33163;0.000;0.000;2022-10-26T11:43:28;20.60;79.70
47414;DHT22;33163;0.000;0.000;2022-10-26T11:46:03;20.70;79.60
47414;DHT22;33163;0.000;0.000;2022-10-26T11:48:36;20.70;79.50
47414;DHT22;33163;0.000;0.000;2022-10-26T11:51:14;20.80;79.20
47414;DHT22;33163;0.000;0.000;2022-10-26T11:53:44;21.00;78.90
47414;DHT22;33163;0.000;0.000;2022-10-26T11:56:14;21.10;78.70
47414;DHT22;33163;0.000;0.000;2022-10-26T11:58:44;21.10;78.60
47414;DHT22;33163;0.000;0.000;2022-10-26T12:01:13;21.20;78.30
47414;DHT22;33163;0.000;0.000;2022-10-26T12:03:43;21.20;78.40
47414;DHT22;33163;0.000;0.000;2022-10-26T12:06:12;21.20;78.30
47414;DHT22;33163;0.000;0.000;2022-10-26T12:08:42;21.30;78.10
47414;DHT22;33163;0.000;0.000;2022-10-26T12:11:12;21.30;78.60
47414;DHT22;33163;0.000;0.000;2022-10-26T12:13:51;21.40;77.80
47414;DHT22;33163;0.000;0.000;2022-10-26T12:16:28;21.40;77.60
47414;DHT22;33163;0.000;0.000;2022-10-26T12:18:59;21.50;77.50
47414;DHT22;33163;0.000;0.000;2022-10-26T12:21:30;21.50;77.40
47414;DHT22;33163;0.000;0.000;2022-10-26T12:23:59;21.50;77.50
47414;DHT22;33163;0.000;0.000;2022-10-26T12:26:50;21.50;77.50
47414;DHT22;33163;0.000;0.000;2022-10-26T12:29:31;21.50;77.60
47414;DHT22;33163;0.000;0.000;2022-10-26T12:32:02;21.40;77.80
47414;DHT22;33163;0.000;0.000;2022-10-26T12:34:56;21.30;78.00
47414;DHT22;33163;0.000;0.000;2022-10-26T12:37:30;21.40;77.80
47414;DHT22;33163;0.000;0.000;2022-10-26T12:46:43;21.70;77.00
47414;DHT22;33163;0.000;0.000;2022-10-26T12:52:41;21.70;76.70
47414;DHT22;33163;0.000;0.000;2022-10-26T13:01:34;21.90;76.20
47414;DHT22;33163;0.000;0.000;2022-10-26T13:04:19;21.90;76.50
47414;DHT22;33163;0.000;0.000;2022-10-26T13:07:19;21.90;76.50
47414;DHT22;33163;0.000;0.000;2022-10-26T13:09:57;21.90;76.40
47414;DHT22;33163;0.000;0.000;2022-10-26T13:12:26;22.00;76.50
47414;DHT22;33163;0.000;0.000;2022-10-26T13:15:00;22.00;76.40
47414;DHT22;33163;0.000;0.000;2022-10-26T13:17:30;22.00;76.30
47414;DHT22;33163;0.000;0.000;2022-10-26T13:20:00;22.10;76.70
47414;DHT22;33163;0.000;0.000;2022-10-26T13:22:28;22.00;76.00
47414;DHT22;33163;0.000;0.000;2022-10-26T13:24:57;22.00;75.90
47414;DHT22;33163;0.000;0.000;2022-10-26T13:27:42;21.90;75.60
47414;DHT22;33163;0.000;0.000;2022-10-26T13:33:13;21.80;75.40
47414;DHT22;33163;0.000;0.000;2022-10-26T13:35:43;21.80;75.40
47414;DHT22;33163;0.000;0.000;2022-10-26T13:38:12;21.70;75.60
47414;DHT22;33163;0.000;0.000;2022-10-26T13:40:43;21.60;76.00
47414;DHT22;33163;0.000;0.000;2022-10-26T13:43:15;21.60;75.90
47414;DHT22;33163;0.000;0.000;2022-10-26T13:45:49;21.60;76.00
47414;DHT22;33163;0.000;0.000;2022-10-26T13:48:25;21.50;76.00
47414;DHT22;33163;0.000;0.000;2022-10-26T13:50:58;21.50;76.20
47414;DHT22;33163;0.000;0.000;2022-10-26T13:53:36;21.40;76.20
47414;DHT22;33163;0.000;0.000;2022-10-26T13:56:07;21.40;76.20
47414;DHT22;33163;0.000;0.000;2022-10-26T13:58:39;21.40;76.60
47414;DHT22;33163;0.000;0.000;2022-10-26T14:01:14;21.30;76.60
47414;DHT22;33163;0.000;0.000;2022-10-26T14:03:41;21.30;76.80
47414;DHT22;33163;0.000;0.000;2022-10-26T14:06:16;21.20;76.90
47414;DHT22;33163;0.000;0.000;2022-10-26T14:08:45;21.20;77.10
47414;DHT22;33163;0.000;0.000;2022-10-26T14:11:17;21.10;77.30
47414;DHT22;33163;0.000;0.000;2022-10-26T14:13:45;21.10;77.50
47414;DHT22;33163;0.000;0.000;2022-10-26T14:16:14;21.10;77.50
47414;DHT22;33163;0.000;0.000;2022-10-26T14:18:44;21.10;77.70
47414;DHT22;33163;0.000;0.000;2022-10-26T14:21:14;21.10;77.50
47414;DHT22;33163;0.000;0.000;2022-10-26T14:23:46;21.20;77.50
47414;DHT22;33163;0.000;0.000;2022-10-26T14:26:20;21.10;77.50
47414;DHT22;33163;0.000;0.000;2022-10-26T14:28:49;21.10;77.70
47414;DHT22;33163;0.000;0.000;2022-10-26T14:31:21;21.00;77.90
47414;DHT22;33163;0.000;0.000;2022-10-26T14:33:49;21.00;78.00
47414;DHT22;33163;0.000;0.000;2022-10-26T14:36:18;21.00;78.00
47414;DHT22;33163;0.000;0.000;2022-10-26T14:38:49;20.90;78.10
47414;DHT22;33163;0.000;0.000;2022-10-26T14:41:17;20.90;78.10
47414;DHT22;33163;0.000;0.000;2022-10-26T14:43:45;20.90;78.20
47414;DHT22;33163;0.000;0.000;2022-10-26T14:46:13;20.90;78.30
47414;DHT22;33163;0.000;0.000;2022-10-26T14:48:50;20.90;78.40
47414;DHT22;33163;0.000;0.000;2022-10-26T14:51:20;20.90;78.40
47414;DHT22;33163;0.000;0.000;2022-10-26T14:53:48;20.80;78.30
47414;DHT22;33163;0.000;0.000;2022-10-26T14:56:21;20.80;78.50
47414;DHT22;33163;0.000;0.000;2022-10-26T14:58:48;20.80;78.60
47414;DHT22;33163;0.000;0.000;2022-10-26T15:01:27;20.80;78.50
47414;DHT22;33163;0.000;0.000;2022-10-26T15:03:56;20.80;78.50
47414;DHT22;33163;0.000;0.000;2022-10-26T15:06:39;20.80;78.60
47414;DHT22;33163;0.000;0.000;2022-10-26T15:09:19;20.80;78.50
47414;DHT22;33163;0.000;0.000;2022-10-26T15:11:53;20.70;78.50
47414;DHT22;33163;0.000;0.000;2022-10-26T15:14:20;20.80;78.60
47414;DHT22;33163;0.000;0.000;2022-10-26T15:16:51;20.70;78.50
47414;DHT22;33163;0.000;0.000;2022-10-26T15:19:20;20.70;78.60
47414;DHT22;33163;0.000;0.000;2022-10-26T15:21:50;20.70;78.60
47414;DHT22;33163;0.000;0.000;2022-10-26T15:24:29;20.70;78.60
47414;DHT22;33163;0.000;0.000;2022-10-26T15:26:57;20.70;78.60
47414;DHT22;33163;0.000;0.000;2022-10-26T15:29:35;20.70;78.60
47414;DHT22;33163;0.000;0.000;2022-10-26T15:32:03;20.70;78.70
47414;DHT22;33163;0.000;0.000;2022-10-26T15:34:30;20.70;78.70
47414;DHT22;33163;0.000;0.000;2022-10-26T15:36:58;20.70;78.70
47414;DHT22;33163;0.000;0.000;2022-10-26T15:39:25;20.70;78.70
47414;DHT22;33163;0.000;0.000;2022-10-26T15:41:52;20.60;78.80
47414;DHT22;33163;0.000;0.000;2022-10-26T15:44:21;20.60;78.80
47414;DHT22;33163;0.000;0.000;2022-10-26T15:46:48;20.60;79.70
47414;DHT22;33163;0.000;0.000;2022-10-26T15:49:17;20.60;79.00
47414;DHT22;33163;0.000;0.000;2022-10-26T15:51:45;20.60;78.90
47414;DHT22;33163;0.000;0.000;2022-10-26T15:54:14;20.60;78.80
47414;DHT22;33163;0.000;0.000;2022-10-26T15:56:41;20.60;79.00
47414;DHT22;33163;0.000;0.000;2022-10-26T15:59:15;20.60;79.10
47414;DHT22;33163;0.000;0.000;2022-10-26T16:01:42;20.60;79.10
47414;DHT22;33163;0.000;0.000;2022-10-26T16:04:09;20.60;79.20
47414;DHT22;33163;0.000;0.000;2022-10-26T16:06:37;20.60;79.30
47414;DHT22;33163;0.000;0.000;2022-10-26T16:09:09;20.60;79.50
47414;DHT22;33163;0.000;0.000;2022-10-26T16:11:37;20.60;79.40
47414;DHT22;33163;0.000;0.000;2022-10-26T16:14:04;20.60;79.50
47414;DHT22;33163;0.000;0.000;2022-10-26T16:16:31;20.60;79.60
47414;DHT22;33163;0.000;0.000;2022-10-26T16:18:57;20.60;79.80
47414;DHT22;33163;0.000;0.000;2022-10-26T16:21:24;20.60;79.90
47414;DHT22;33163;0.000;0.000;2022-10-26T16:23:53;20.60;79.70
47414;DHT22;33163;0.000;0.000;2022-10-26T16:26:21;20.60;79.60
47414;DHT22;33163;0.000;0.000;2022-10-26T16:28:50;20.60;79.60
47414;DHT22;33163;0.000;0.000;2022-10-26T16:31:18;20.60;79.50